sensor_id;sensor_type;location;lat;lon;timestamp;P1;durP1;ratioP1;P2;durP2;ratioP2
77105;SDS011;66057;54.718;18.426;2023-05-31T00:00:44;6.38;;;2.95;;
77105;SDS011;66057;54.718;18.426;2023-05-31T00:03:23;9.40;;;3.10;;
77105;SDS011;66057;54.718;18.426;2023-05-31T00:05:54;7.50;;;2.40;;
77105;SDS011;66057;54.718;18.426;2023-05-31T00:08:20;5.00;;;2.60;;
77105;SDS011;66057;54.718;18.426;2023-05-31T00:10:55;6.57;;;2.83;;
77105;SDS011;66057;54.718;18.426;2023-05-31T00:13:26;6.40;;;2.33;;
77105;SDS011;66057;54.718;18.426;2023-05-31T00:15:59;6.47;;;2.83;;
77105;SDS011;66057;54.718;18.426;2023-05-31T00:18:33;7.75;;;2.42;;
77105;SDS011;66057;54.718;18.426;2023-05-31T00:21:00;11.55;;;3.63;;
77105;SDS011;66057;54.718;18.426;2023-05-31T00:26:31;8.20;;;2.78;;
77105;SDS011;66057;54.718;18.426;2023-05-31T00:29:01;9.18;;;2.53;;
77105;SDS011;66057;54.718;18.426;2023-05-31T00:31:30;8.50;;;2.70;;
77105;SDS011;66057;54.718;18.426;2023-05-31T00:33:56;8.15;;;2.45;;
77105;SDS011;66057;54.718;18.426;2023-05-31T00:36:23;11.40;;;3.55;;
77105;SDS011;66057;54.718;18.426;2023-05-31T00:38:49;20.52;;;5.90;;
77105;SDS011;66057;54.718;18.426;2023-05-31T00:41:15;15.35;;;5.30;;
77105;SDS011;66057;54.718;18.426;2023-05-31T00:43:44;11.98;;;5.65;;
77105;SDS011;66057;54.718;18.426;2023-05-31T00:46:12;13.00;;;4.85;;
77105;SDS011;66057;54.718;18.426;2023-05-31T00:48:54;11.38;;;4.65;;
77105;SDS011;66057;54.718;18.426;2023-05-31T00:51:21;13.27;;;4.68;;
77105;SDS011;66057;54.718;18.426;2023-05-31T00:53:52;10.10;;;3.05;;
77105;SDS011;66057;54.718;18.426;2023-05-31T00:56:21;8.55;;;2.95;;
77105;SDS011;66057;54.718;18.426;2023-05-31T00:58:48;9.15;;;2.53;;
77105;SDS011;66057;54.718;18.426;2023-05-31T01:01:16;5.25;;;2.60;;
77105;SDS011;66057;54.718;18.426;2023-05-31T01:03:46;4.68;;;1.98;;
77105;SDS011;66057;54.718;18.426;2023-05-31T01:06:12;5.55;;;2.72;;
77105;SDS011;66057;54.718;18.426;2023-05-31T01:08:41;7.00;;;2.42;;
77105;SDS011;66057;54.718;18.426;2023-05-31T01:20:00;2.15;;;1.58;;
77105;SDS011;66057;54.718;18.426;2023-05-31T01:22:45;3.40;;;1.48;;
77105;SDS011;66057;54.718;18.426;2023-05-31T01:28:27;3.30;;;1.67;;
77105;SDS011;66057;54.718;18.426;2023-05-31T01:30:58;4.22;;;2.15;;
77105;SDS011;66057;54.718;18.426;2023-05-31T01:33:26;5.82;;;1.45;;
77105;SDS011;66057;54.718;18.426;2023-05-31T01:35:53;3.42;;;1.60;;
77105;SDS011;66057;54.718;18.426;2023-05-31T01:38:19;3.85;;;1.30;;
77105;SDS011;66057;54.718;18.426;2023-05-31T01:40:46;3.25;;;2.03;;
77105;SDS011;66057;54.718;18.426;2023-05-31T01:43:13;4.10;;;2.28;;
77105;SDS011;66057;54.718;18.426;2023-05-31T01:45:41;2.97;;;1.75;;
77105;SDS011;66057;54.718;18.426;2023-05-31T01:48:10;3.05;;;1.63;;
77105;SDS011;66057;54.718;18.426;2023-05-31T01:50:39;0.73;;;0.60;;
77105;SDS011;66057;54.718;18.426;2023-05-31T01:53:08;1.75;;;1.20;;
77105;SDS011;66057;54.718;18.426;2023-05-31T01:55:37;4.18;;;1.52;;
77105;SDS011;66057;54.718;18.426;2023-05-31T01:58:09;1.80;;;1.10;;
77105;SDS011;66057;54.718;18.426;2023-05-31T02:00:35;2.53;;;1.58;;
77105;SDS011;66057;54.718;18.426;2023-05-31T02:03:06;1.85;;;0.95;;
77105;SDS011;66057;54.718;18.426;2023-05-31T02:05:59;3.17;;;1.40;;
77105;SDS011;66057;54.718;18.426;2023-05-31T02:08:28;3.47;;;1.30;;
77105;SDS011;66057;54.718;18.426;2023-05-31T02:10:56;2.63;;;0.88;;
77105;SDS011;66057;54.718;18.426;2023-05-31T02:13:29;1.67;;;0.88;;
77105;SDS011;66057;54.718;18.426;2023-05-31T02:15:59;2.97;;;1.10;;
77105;SDS011;66057;54.718;18.426;2023-05-31T02:18:34;2.08;;;0.98;;
77105;SDS011;66057;54.718;18.426;2023-05-31T02:21:01;2.85;;;1.30;;
77105;SDS011;66057;54.718;18.426;2023-05-31T02:23:28;2.63;;;1.55;;
77105;SDS011;66057;54.718;18.426;2023-05-31T02:25:57;3.63;;;1.38;;
77105;SDS011;66057;54.718;18.426;2023-05-31T02:28:23;2.40;;;1.23;;
77105;SDS011;66057;54.718;18.426;2023-05-31T02:30:55;2.15;;;1.20;;
77105;SDS011;66057;54.718;18.426;2023-05-31T02:33:23;1.60;;;1.15;;
77105;SDS011;66057;54.718;18.426;2023-05-31T02:35:49;1.85;;;1.02;;
77105;SDS011;66057;54.718;18.426;2023-05-31T02:38:20;3.15;;;1.20;;
77105;SDS011;66057;54.718;18.426;2023-05-31T02:40:49;3.95;;;1.15;;
77105;SDS011;66057;54.718;18.426;2023-05-31T02:43:47;2.08;;;1.17;;
77105;SDS011;66057;54.718;18.426;2023-05-31T02:46:12;2.95;;;1.45;;
77105;SDS011;66057;54.718;18.426;2023-05-31T02:48:42;3.10;;;1.48;;
77105;SDS011;66057;54.718;18.426;2023-05-31T02:51:14;1.67;;;1.00;;
77105;SDS011;66057;54.718;18.426;2023-05-31T02:53:49;3.08;;;1.50;;
77105;SDS011;66057;54.718;18.426;2023-05-31T02:56:22;3.13;;;1.40;;
77105;SDS011;66057;54.718;18.426;2023-05-31T02:58:52;3.95;;;1.75;;
77105;SDS011;66057;54.718;18.426;2023-05-31T03:01:24;2.92;;;1.50;;
77105;SDS011;66057;54.718;18.426;2023-05-31T03:08:45;2.30;;;1.50;;
77105;SDS011;66057;54.718;18.426;2023-05-31T03:11:14;1.35;;;0.93;;
77105;SDS011;66057;54.718;18.426;2023-05-31T03:13:40;3.78;;;1.98;;
77105;SDS011;66057;54.718;18.426;2023-05-31T03:16:06;3.85;;;1.90;;
77105;SDS011;66057;54.718;18.426;2023-05-31T03:18:33;9.40;;;2.90;;
77105;SDS011;66057;54.718;18.426;2023-05-31T03:20:58;3.53;;;2.03;;
77105;SDS011;66057;54.718;18.426;2023-05-31T03:23:25;5.28;;;2.53;;
77105;SDS011;66057;54.718;18.426;2023-05-31T03:25:51;3.92;;;1.98;;
77105;SDS011;66057;54.718;18.426;2023-05-31T03:28:26;5.47;;;2.53;;
77105;SDS011;66057;54.718;18.426;2023-05-31T03:30:59;4.28;;;1.65;;
77105;SDS011;66057;54.718;18.426;2023-05-31T03:33:28;6.95;;;3.45;;
77105;SDS011;66057;54.718;18.426;2023-05-31T03:35:56;6.72;;;2.60;;
77105;SDS011;66057;54.718;18.426;2023-05-31T03:38:22;7.28;;;2.25;;
77105;SDS011;66057;54.718;18.426;2023-05-31T03:40:48;5.97;;;3.40;;
77105;SDS011;66057;54.718;18.426;2023-05-31T03:43:20;7.38;;;3.15;;
77105;SDS011;66057;54.718;18.426;2023-05-31T03:45:49;5.53;;;2.60;;
77105;SDS011;66057;54.718;18.426;2023-05-31T03:48:31;6.32;;;2.40;;
77105;SDS011;66057;54.718;18.426;2023-05-31T03:50:57;5.50;;;2.53;;
77105;SDS011;66057;54.718;18.426;2023-05-31T03:53:23;6.70;;;1.80;;
77105;SDS011;66057;54.718;18.426;2023-05-31T03:55:52;15.73;;;3.30;;
77105;SDS011;66057;54.718;18.426;2023-05-31T03:58:27;5.75;;;2.88;;
77105;SDS011;66057;54.718;18.426;2023-05-31T04:01:08;4.38;;;2.17;;
77105;SDS011;66057;54.718;18.426;2023-05-31T04:03:34;4.93;;;2.47;;
77105;SDS011;66057;54.718;18.426;2023-05-31T04:06:03;6.82;;;2.63;;
77105;SDS011;66057;54.718;18.426;2023-05-31T04:08:38;8.48;;;3.15;;
77105;SDS011;66057;54.718;18.426;2023-05-31T04:11:10;5.57;;;2.08;;
77105;SDS011;66057;54.718;18.426;2023-05-31T04:14:07;11.57;;;2.35;;
77105;SDS011;66057;54.718;18.426;2023-05-31T04:16:36;7.88;;;2.40;;
77105;SDS011;66057;54.718;18.426;2023-05-31T04:19:02;3.63;;;1.83;;
77105;SDS011;66057;54.718;18.426;2023-05-31T04:21:31;3.55;;;2.25;;
77105;SDS011;66057;54.718;18.426;2023-05-31T04:23:58;6.85;;;2.13;;
77105;SDS011;66057;54.718;18.426;2023-05-31T04:26:24;9.23;;;2.75;;
77105;SDS011;66057;54.718;18.426;2023-05-31T04:28:51;5.45;;;1.90;;
77105;SDS011;66057;54.718;18.426;2023-05-31T04:31:19;9.63;;;2.10;;
77105;SDS011;66057;54.718;18.426;2023-05-31T04:33:46;11.15;;;2.08;;
77105;SDS011;66057;54.718;18.426;2023-05-31T04:36:12;5.85;;;1.77;;
77105;SDS011;66057;54.718;18.426;2023-05-31T04:38:44;2.67;;;1.20;;
77105;SDS011;66057;54.718;18.426;2023-05-31T04:41:20;6.78;;;1.83;;
77105;SDS011;66057;54.718;18.426;2023-05-31T04:43:54;5.30;;;1.52;;
77105;SDS011;66057;54.718;18.426;2023-05-31T04:46:23;3.85;;;1.80;;
77105;SDS011;66057;54.718;18.426;2023-05-31T04:48:50;7.57;;;2.05;;
77105;SDS011;66057;54.718;18.426;2023-05-31T04:51:17;5.97;;;1.95;;
77105;SDS011;66057;54.718;18.426;2023-05-31T04:53:44;4.32;;;1.15;;
77105;SDS011;66057;54.718;18.426;2023-05-31T04:56:13;8.50;;;2.10;;
77105;SDS011;66057;54.718;18.426;2023-05-31T04:58:40;4.38;;;1.70;;
77105;SDS011;66057;54.718;18.426;2023-05-31T05:01:06;6.43;;;1.73;;
77105;SDS011;66057;54.718;18.426;2023-05-31T05:03:33;4.25;;;1.80;;
77105;SDS011;66057;54.718;18.426;2023-05-31T05:06:12;4.75;;;1.65;;
77105;SDS011;66057;54.718;18.426;2023-05-31T05:08:43;1.15;;;0.70;;
77105;SDS011;66057;54.718;18.426;2023-05-31T05:11:10;4.85;;;1.35;;
77105;SDS011;66057;54.718;18.426;2023-05-31T05:13:36;5.22;;;2.60;;
77105;SDS011;66057;54.718;18.426;2023-05-31T05:16:03;4.75;;;1.17;;
77105;SDS011;66057;54.718;18.426;2023-05-31T05:18:30;3.53;;;1.30;;
77105;SDS011;66057;54.718;18.426;2023-05-31T05:20:56;7.82;;;1.75;;
77105;SDS011;66057;54.718;18.426;2023-05-31T05:23:23;2.90;;;1.23;;
77105;SDS011;66057;54.718;18.426;2023-05-31T05:25:49;3.38;;;1.30;;
77105;SDS011;66057;54.718;18.426;2023-05-31T05:28:17;1.70;;;0.73;;
77105;SDS011;66057;54.718;18.426;2023-05-31T05:30:45;4.68;;;1.35;;
77105;SDS011;66057;54.718;18.426;2023-05-31T05:33:11;2.35;;;0.75;;
77105;SDS011;66057;54.718;18.426;2023-05-31T05:35:43;6.18;;;1.58;;
77105;SDS011;66057;54.718;18.426;2023-05-31T05:38:09;5.47;;;1.58;;
77105;SDS011;66057;54.718;18.426;2023-05-31T05:40:38;3.25;;;1.30;;
77105;SDS011;66057;54.718;18.426;2023-05-31T05:43:07;3.83;;;1.00;;
77105;SDS011;66057;54.718;18.426;2023-05-31T05:45:36;4.40;;;1.50;;
77105;SDS011;66057;54.718;18.426;2023-05-31T05:48:02;3.63;;;1.58;;
77105;SDS011;66057;54.718;18.426;2023-05-31T05:50:31;3.70;;;1.17;;
77105;SDS011;66057;54.718;18.426;2023-05-31T05:52:58;6.20;;;1.45;;
77105;SDS011;66057;54.718;18.426;2023-05-31T05:55:27;2.92;;;0.90;;
77105;SDS011;66057;54.718;18.426;2023-05-31T05:57:53;5.13;;;1.05;;
77105;SDS011;66057;54.718;18.426;2023-05-31T06:00:23;4.20;;;0.80;;
77105;SDS011;66057;54.718;18.426;2023-05-31T06:02:50;3.03;;;1.27;;
77105;SDS011;66057;54.718;18.426;2023-05-31T06:05:18;2.13;;;0.55;;
77105;SDS011;66057;54.718;18.426;2023-05-31T06:07:51;5.50;;;1.42;;
77105;SDS011;66057;54.718;18.426;2023-05-31T06:10:17;1.95;;;0.85;;
77105;SDS011;66057;54.718;18.426;2023-05-31T06:12:43;1.48;;;0.77;;
77105;SDS011;66057;54.718;18.426;2023-05-31T06:15:09;2.67;;;0.90;;
77105;SDS011;66057;54.718;18.426;2023-05-31T06:17:36;3.35;;;0.70;;
77105;SDS011;66057;54.718;18.426;2023-05-31T06:20:08;5.25;;;1.00;;
77105;SDS011;66057;54.718;18.426;2023-05-31T06:22:41;5.20;;;1.10;;
77105;SDS011;66057;54.718;18.426;2023-05-31T06:25:07;3.03;;;1.20;;
77105;SDS011;66057;54.718;18.426;2023-05-31T06:27:36;3.25;;;0.90;;
77105;SDS011;66057;54.718;18.426;2023-05-31T06:30:02;2.40;;;0.68;;
77105;SDS011;66057;54.718;18.426;2023-05-31T06:32:29;6.75;;;1.20;;
77105;SDS011;66057;54.718;18.426;2023-05-31T06:35:02;3.35;;;1.15;;
77105;SDS011;66057;54.718;18.426;2023-05-31T06:37:31;3.58;;;0.98;;
77105;SDS011;66057;54.718;18.426;2023-05-31T06:39:57;2.78;;;0.82;;
77105;SDS011;66057;54.718;18.426;2023-05-31T06:42:24;3.83;;;0.50;;
77105;SDS011;66057;54.718;18.426;2023-05-31T06:44:50;6.90;;;1.08;;
77105;SDS011;66057;54.718;18.426;2023-05-31T06:47:16;5.63;;;0.85;;
77105;SDS011;66057;54.718;18.426;2023-05-31T06:49:42;1.60;;;0.65;;
77105;SDS011;66057;54.718;18.426;2023-05-31T06:52:08;3.67;;;1.05;;
77105;SDS011;66057;54.718;18.426;2023-05-31T06:54:35;4.78;;;0.73;;
77105;SDS011;66057;54.718;18.426;2023-05-31T06:57:02;1.00;;;0.40;;
77105;SDS011;66057;54.718;18.426;2023-05-31T06:59:31;2.10;;;0.63;;
77105;SDS011;66057;54.718;18.426;2023-05-31T07:01:58;3.63;;;0.68;;
77105;SDS011;66057;54.718;18.426;2023-05-31T07:04:24;4.05;;;0.70;;
77105;SDS011;66057;54.718;18.426;2023-05-31T07:06:50;2.40;;;0.60;;
77105;SDS011;66057;54.718;18.426;2023-05-31T07:09:16;2.65;;;0.65;;
77105;SDS011;66057;54.718;18.426;2023-05-31T07:11:42;1.42;;;0.40;;
77105;SDS011;66057;54.718;18.426;2023-05-31T07:14:10;1.40;;;0.40;;
77105;SDS011;66057;54.718;18.426;2023-05-31T07:16:39;4.55;;;0.80;;
77105;SDS011;66057;54.718;18.426;2023-05-31T07:19:08;3.25;;;0.70;;
77105;SDS011;66057;54.718;18.426;2023-05-31T07:21:44;3.78;;;0.40;;
77105;SDS011;66057;54.718;18.426;2023-05-31T07:24:10;3.20;;;0.35;;
77105;SDS011;66057;54.718;18.426;2023-05-31T07:26:41;5.47;;;0.70;;
77105;SDS011;66057;54.718;18.426;2023-05-31T07:29:07;1.80;;;0.30;;
77105;SDS011;66057;54.718;18.426;2023-05-31T07:31:36;3.20;;;1.00;;
77105;SDS011;66057;54.718;18.426;2023-05-31T07:34:02;2.30;;;0.88;;
77105;SDS011;66057;54.718;18.426;2023-05-31T07:36:29;2.47;;;0.60;;
77105;SDS011;66057;54.718;18.426;2023-05-31T07:41:21;3.42;;;0.60;;
77105;SDS011;66057;54.718;18.426;2023-05-31T07:43:47;1.35;;;0.30;;
77105;SDS011;66057;54.718;18.426;2023-05-31T07:46:13;2.20;;;0.50;;
77105;SDS011;66057;54.718;18.426;2023-05-31T07:48:39;3.22;;;0.63;;
77105;SDS011;66057;54.718;18.426;2023-05-31T07:51:05;1.17;;;0.55;;
77105;SDS011;66057;54.718;18.426;2023-05-31T07:53:31;3.20;;;0.70;;
77105;SDS011;66057;54.718;18.426;2023-05-31T07:55:57;0.95;;;0.50;;
77105;SDS011;66057;54.718;18.426;2023-05-31T07:58:23;3.38;;;0.68;;
77105;SDS011;66057;54.718;18.426;2023-05-31T08:00:50;1.20;;;0.35;;
77105;SDS011;66057;54.718;18.426;2023-05-31T08:03:19;6.00;;;0.90;;
77105;SDS011;66057;54.718;18.426;2023-05-31T08:05:45;2.60;;;0.90;;
77105;SDS011;66057;54.718;18.426;2023-05-31T08:08:13;2.08;;;0.75;;
77105;SDS011;66057;54.718;18.426;2023-05-31T08:10:39;1.60;;;0.70;;
77105;SDS011;66057;54.718;18.426;2023-05-31T08:13:05;1.38;;;0.60;;
77105;SDS011;66057;54.718;18.426;2023-05-31T08:15:31;2.72;;;0.65;;
77105;SDS011;66057;54.718;18.426;2023-05-31T08:17:57;2.83;;;0.70;;
77105;SDS011;66057;54.718;18.426;2023-05-31T08:20:24;1.77;;;0.55;;
77105;SDS011;66057;54.718;18.426;2023-05-31T08:22:51;5.13;;;1.17;;
77105;SDS011;66057;54.718;18.426;2023-05-31T08:25:20;2.20;;;0.65;;
77105;SDS011;66057;54.718;18.426;2023-05-31T08:27:48;1.90;;;0.40;;
77105;SDS011;66057;54.718;18.426;2023-05-31T08:30:14;4.20;;;0.82;;
77105;SDS011;66057;54.718;18.426;2023-05-31T08:32:40;0.85;;;0.38;;
77105;SDS011;66057;54.718;18.426;2023-05-31T08:35:11;4.32;;;0.93;;
77105;SDS011;66057;54.718;18.426;2023-05-31T08:37:40;4.75;;;0.80;;
77105;SDS011;66057;54.718;18.426;2023-05-31T08:40:06;2.15;;;0.60;;
77105;SDS011;66057;54.718;18.426;2023-05-31T08:45:06;5.90;;;1.50;;
77105;SDS011;66057;54.718;18.426;2023-05-31T08:47:38;4.03;;;1.25;;
77105;SDS011;66057;54.718;18.426;2023-05-31T08:50:09;7.28;;;1.17;;
77105;SDS011;66057;54.718;18.426;2023-05-31T08:52:36;4.53;;;0.90;;
77105;SDS011;66057;54.718;18.426;2023-05-31T08:55:12;7.57;;;1.13;;
77105;SDS011;66057;54.718;18.426;2023-05-31T08:57:58;3.03;;;0.93;;
77105;SDS011;66057;54.718;18.426;2023-05-31T09:00:26;4.40;;;0.88;;
77105;SDS011;66057;54.718;18.426;2023-05-31T09:02:55;2.45;;;0.55;;
77105;SDS011;66057;54.718;18.426;2023-05-31T09:05:24;3.20;;;1.58;;
77105;SDS011;66057;54.718;18.426;2023-05-31T09:07:50;4.28;;;0.98;;
77105;SDS011;66057;54.718;18.426;2023-05-31T09:10:17;12.38;;;2.47;;
77105;SDS011;66057;54.718;18.426;2023-05-31T09:12:44;9.00;;;2.22;;
77105;SDS011;66057;54.718;18.426;2023-05-31T09:15:12;12.38;;;2.38;;
77105;SDS011;66057;54.718;18.426;2023-05-31T09:17:44;4.57;;;1.17;;
77105;SDS011;66057;54.718;18.426;2023-05-31T09:20:11;4.78;;;0.70;;
77105;SDS011;66057;54.718;18.426;2023-05-31T09:25:03;2.00;;;0.57;;
77105;SDS011;66057;54.718;18.426;2023-05-31T09:27:36;1.88;;;0.60;;
77105;SDS011;66057;54.718;18.426;2023-05-31T09:30:04;0.82;;;0.70;;
77105;SDS011;66057;54.718;18.426;2023-05-31T09:32:37;4.47;;;0.43;;
77105;SDS011;66057;54.718;18.426;2023-05-31T09:35:11;3.20;;;0.68;;
77105;SDS011;66057;54.718;18.426;2023-05-31T09:37:42;3.10;;;0.43;;
77105;SDS011;66057;54.718;18.426;2023-05-31T09:40:23;2.72;;;0.40;;
77105;SDS011;66057;54.718;18.426;2023-05-31T09:42:51;2.67;;;0.52;;
77105;SDS011;66057;54.718;18.426;2023-05-31T09:45:19;2.35;;;0.55;;
77105;SDS011;66057;54.718;18.426;2023-05-31T09:47:46;3.28;;;0.73;;
77105;SDS011;66057;54.718;18.426;2023-05-31T09:50:16;1.75;;;0.52;;
77105;SDS011;66057;54.718;18.426;2023-05-31T09:52:44;1.55;;;0.55;;
77105;SDS011;66057;54.718;18.426;2023-05-31T09:55:11;3.67;;;0.60;;
77105;SDS011;66057;54.718;18.426;2023-05-31T09:57:39;1.90;;;0.90;;
77105;SDS011;66057;54.718;18.426;2023-05-31T10:00:07;2.90;;;0.82;;
77105;SDS011;66057;54.718;18.426;2023-05-31T10:02:53;6.90;;;1.48;;
77105;SDS011;66057;54.718;18.426;2023-05-31T10:05:20;2.67;;;0.82;;
77105;SDS011;66057;54.718;18.426;2023-05-31T10:07:47;6.25;;;1.23;;
77105;SDS011;66057;54.718;18.426;2023-05-31T10:10:17;6.95;;;1.08;;
77105;SDS011;66057;54.718;18.426;2023-05-31T10:12:49;1.70;;;0.93;;
77105;SDS011;66057;54.718;18.426;2023-05-31T10:15:26;1.92;;;0.60;;
77105;SDS011;66057;54.718;18.426;2023-05-31T10:17:59;0.98;;;0.45;;
77105;SDS011;66057;54.718;18.426;2023-05-31T10:20:32;4.15;;;0.43;;
77105;SDS011;66057;54.718;18.426;2023-05-31T10:28:26;3.30;;;0.63;;
77105;SDS011;66057;54.718;18.426;2023-05-31T10:30:54;1.27;;;0.30;;
77105;SDS011;66057;54.718;18.426;2023-05-31T10:33:21;1.90;;;0.52;;
77105;SDS011;66057;54.718;18.426;2023-05-31T10:35:51;2.30;;;0.32;;
77105;SDS011;66057;54.718;18.426;2023-05-31T10:40:47;2.75;;;0.50;;
77105;SDS011;66057;54.718;18.426;2023-05-31T10:43:40;2.63;;;0.63;;
77105;SDS011;66057;54.718;18.426;2023-05-31T10:46:10;2.88;;;0.73;;
77105;SDS011;66057;54.718;18.426;2023-05-31T10:48:51;2.47;;;0.45;;
77105;SDS011;66057;54.718;18.426;2023-05-31T10:51:33;2.63;;;0.38;;
77105;SDS011;66057;54.718;18.426;2023-05-31T10:54:18;2.10;;;0.38;;
77105;SDS011;66057;54.718;18.426;2023-05-31T10:56:51;1.67;;;0.40;;
77105;SDS011;66057;54.718;18.426;2023-05-31T10:59:18;2.25;;;0.40;;
77105;SDS011;66057;54.718;18.426;2023-05-31T11:01:45;1.05;;;0.38;;
77105;SDS011;66057;54.718;18.426;2023-05-31T11:04:24;2.08;;;0.50;;
77105;SDS011;66057;54.718;18.426;2023-05-31T11:07:14;1.88;;;0.38;;
77105;SDS011;66057;54.718;18.426;2023-05-31T11:09:54;1.27;;;0.30;;
77105;SDS011;66057;54.718;18.426;2023-05-31T11:12:37;2.72;;;0.38;;
77105;SDS011;66057;54.718;18.426;2023-05-31T11:15:11;3.70;;;0.50;;
77105;SDS011;66057;54.718;18.426;2023-05-31T11:17:39;1.85;;;0.63;;
77105;SDS011;66057;54.718;18.426;2023-05-31T11:20:19;1.60;;;0.30;;
77105;SDS011;66057;54.718;18.426;2023-05-31T11:22:46;2.63;;;0.50;;
77105;SDS011;66057;54.718;18.426;2023-05-31T11:25:26;3.72;;;0.50;;
77105;SDS011;66057;54.718;18.426;2023-05-31T11:28:04;1.30;;;0.22;;
77105;SDS011;66057;54.718;18.426;2023-05-31T11:30:37;0.60;;;0.38;;
77105;SDS011;66057;54.718;18.426;2023-05-31T11:33:14;4.95;;;0.73;;
77105;SDS011;66057;54.718;18.426;2023-05-31T11:35:43;1.10;;;0.38;;
77105;SDS011;66057;54.718;18.426;2023-05-31T11:38:10;2.85;;;0.50;;
77105;SDS011;66057;54.718;18.426;2023-05-31T11:40:36;1.02;;;0.47;;
77105;SDS011;66057;54.718;18.426;2023-05-31T11:43:05;1.13;;;0.40;;
77105;SDS011;66057;54.718;18.426;2023-05-31T11:45:32;1.88;;;0.30;;
77105;SDS011;66057;54.718;18.426;2023-05-31T11:48:09;4.53;;;0.50;;
77105;SDS011;66057;54.718;18.426;2023-05-31T11:50:42;2.75;;;0.30;;
77105;SDS011;66057;54.718;18.426;2023-05-31T11:53:10;3.72;;;0.50;;
77105;SDS011;66057;54.718;18.426;2023-05-31T11:55:36;3.42;;;0.52;;
77105;SDS011;66057;54.718;18.426;2023-05-31T11:58:06;1.65;;;0.45;;
77105;SDS011;66057;54.718;18.426;2023-05-31T12:00:32;1.75;;;0.57;;
77105;SDS011;66057;54.718;18.426;2023-05-31T12:02:59;3.70;;;0.32;;
77105;SDS011;66057;54.718;18.426;2023-05-31T12:05:29;1.25;;;0.25;;
77105;SDS011;66057;54.718;18.426;2023-05-31T12:07:56;2.83;;;0.50;;
77105;SDS011;66057;54.718;18.426;2023-05-31T12:10:30;4.47;;;0.50;;
77105;SDS011;66057;54.718;18.426;2023-05-31T12:12:57;1.00;;;0.55;;
77105;SDS011;66057;54.718;18.426;2023-05-31T12:15:23;1.80;;;0.30;;
77105;SDS011;66057;54.718;18.426;2023-05-31T12:17:57;1.02;;;0.45;;
77105;SDS011;66057;54.718;18.426;2023-05-31T12:20:33;3.53;;;0.32;;
77105;SDS011;66057;54.718;18.426;2023-05-31T12:23:10;3.58;;;0.55;;
77105;SDS011;66057;54.718;18.426;2023-05-31T12:25:36;1.65;;;0.40;;
77105;SDS011;66057;54.718;18.426;2023-05-31T12:28:06;2.08;;;0.50;;
77105;SDS011;66057;54.718;18.426;2023-05-31T12:30:42;2.38;;;0.80;;
77105;SDS011;66057;54.718;18.426;2023-05-31T12:33:17;2.40;;;0.80;;
77105;SDS011;66057;54.718;18.426;2023-05-31T12:35:43;2.08;;;0.70;;
77105;SDS011;66057;54.718;18.426;2023-05-31T12:38:11;3.13;;;1.13;;
77105;SDS011;66057;54.718;18.426;2023-05-31T12:40:37;2.92;;;1.38;;
77105;SDS011;66057;54.718;18.426;2023-05-31T12:43:04;2.53;;;0.98;;
77105;SDS011;66057;54.718;18.426;2023-05-31T12:45:40;2.60;;;1.10;;
77105;SDS011;66057;54.718;18.426;2023-05-31T12:48:07;5.10;;;1.30;;
77105;SDS011;66057;54.718;18.426;2023-05-31T12:50:34;7.30;;;1.70;;
77105;SDS011;66057;54.718;18.426;2023-05-31T12:55:26;3.85;;;1.55;;
77105;SDS011;66057;54.718;18.426;2023-05-31T12:57:53;3.50;;;1.73;;
77105;SDS011;66057;54.718;18.426;2023-05-31T13:00:18;4.25;;;2.40;;
77105;SDS011;66057;54.718;18.426;2023-05-31T13:02:45;8.07;;;1.70;;
77105;SDS011;66057;54.718;18.426;2023-05-31T13:07:40;2.67;;;1.38;;
77105;SDS011;66057;54.718;18.426;2023-05-31T13:10:09;2.28;;;0.82;;
77105;SDS011;66057;54.718;18.426;2023-05-31T13:12:36;2.25;;;0.85;;
77105;SDS011;66057;54.718;18.426;2023-05-31T13:15:02;2.85;;;0.70;;
77105;SDS011;66057;54.718;18.426;2023-05-31T13:17:31;2.72;;;0.68;;
77105;SDS011;66057;54.718;18.426;2023-05-31T13:22:22;1.88;;;0.30;;
77105;SDS011;66057;54.718;18.426;2023-05-31T13:27:17;2.92;;;0.40;;
77105;SDS011;66057;54.718;18.426;2023-05-31T13:29:43;2.28;;;0.50;;
77105;SDS011;66057;54.718;18.426;2023-05-31T13:32:09;3.55;;;0.60;;
77105;SDS011;66057;54.718;18.426;2023-05-31T13:37:01;4.50;;;0.88;;
77105;SDS011;66057;54.718;18.426;2023-05-31T13:39:28;2.85;;;0.55;;
77105;SDS011;66057;54.718;18.426;2023-05-31T13:41:57;1.42;;;0.40;;
77105;SDS011;66057;54.718;18.426;2023-05-31T13:46:49;2.05;;;0.60;;
77105;SDS011;66057;54.718;18.426;2023-05-31T13:51:41;1.80;;;0.52;;
77105;SDS011;66057;54.718;18.426;2023-05-31T13:54:07;3.92;;;0.40;;
77105;SDS011;66057;54.718;18.426;2023-05-31T13:56:33;3.40;;;0.60;;
77105;SDS011;66057;54.718;18.426;2023-05-31T14:01:28;2.58;;;0.40;;
77105;SDS011;66057;54.718;18.426;2023-05-31T14:06:20;1.88;;;0.30;;
77105;SDS011;66057;54.718;18.426;2023-05-31T14:08:46;2.35;;;0.40;;
77105;SDS011;66057;54.718;18.426;2023-05-31T14:11:13;2.05;;;0.32;;
77105;SDS011;66057;54.718;18.426;2023-05-31T14:13:39;3.95;;;0.40;;
77105;SDS011;66057;54.718;18.426;2023-05-31T14:16:05;2.08;;;0.40;;
77105;SDS011;66057;54.718;18.426;2023-05-31T14:20:58;3.00;;;0.60;;
77105;SDS011;66057;54.718;18.426;2023-05-31T14:25:49;3.65;;;0.55;;
77105;SDS011;66057;54.718;18.426;2023-05-31T14:30:42;1.98;;;0.40;;
77105;SDS011;66057;54.718;18.426;2023-05-31T14:33:08;3.17;;;0.63;;
77105;SDS011;66057;54.718;18.426;2023-05-31T14:35:35;1.17;;;0.50;;
77105;SDS011;66057;54.718;18.426;2023-05-31T14:38:01;6.03;;;0.60;;
77105;SDS011;66057;54.718;18.426;2023-05-31T14:42:52;0.75;;;0.43;;
77105;SDS011;66057;54.718;18.426;2023-05-31T14:47:44;3.72;;;0.63;;
77105;SDS011;66057;54.718;18.426;2023-05-31T14:50:10;2.13;;;0.75;;
77105;SDS011;66057;54.718;18.426;2023-05-31T14:55:02;2.42;;;0.50;;
77105;SDS011;66057;54.718;18.426;2023-05-31T14:59:54;3.10;;;0.93;;
77105;SDS011;66057;54.718;18.426;2023-05-31T15:04:46;1.52;;;0.52;;
77105;SDS011;66057;54.718;18.426;2023-05-31T15:09:39;2.22;;;0.60;;
77105;SDS011;66057;54.718;18.426;2023-05-31T15:12:07;2.33;;;0.68;;
77105;SDS011;66057;54.718;18.426;2023-05-31T15:14:35;2.72;;;0.38;;
77105;SDS011;66057;54.718;18.426;2023-05-31T15:17:01;3.22;;;0.70;;
77105;SDS011;66057;54.718;18.426;2023-05-31T15:21:53;2.70;;;0.65;;
77105;SDS011;66057;54.718;18.426;2023-05-31T15:26:45;4.85;;;0.52;;
77105;SDS011;66057;54.718;18.426;2023-05-31T15:29:11;0.90;;;0.40;;
77105;SDS011;66057;54.718;18.426;2023-05-31T15:34:03;2.92;;;0.50;;
77105;SDS011;66057;54.718;18.426;2023-05-31T15:38:59;1.92;;;0.75;;
77105;SDS011;66057;54.718;18.426;2023-05-31T15:41:29;2.83;;;0.80;;
77105;SDS011;66057;54.718;18.426;2023-05-31T15:43:56;6.60;;;0.82;;
77105;SDS011;66057;54.718;18.426;2023-05-31T15:48:48;2.90;;;0.70;;
77105;SDS011;66057;54.718;18.426;2023-05-31T15:51:13;1.38;;;0.47;;
77105;SDS011;66057;54.718;18.426;2023-05-31T15:53:39;5.28;;;0.68;;
77105;SDS011;66057;54.718;18.426;2023-05-31T15:56:06;5.18;;;0.95;;
77105;SDS011;66057;54.718;18.426;2023-05-31T16:00:57;2.40;;;0.50;;
77105;SDS011;66057;54.718;18.426;2023-05-31T16:03:24;4.38;;;0.75;;
77105;SDS011;66057;54.718;18.426;2023-05-31T16:05:50;3.28;;;0.70;;
77105;SDS011;66057;54.718;18.426;2023-05-31T16:08:17;5.85;;;1.13;;
77105;SDS011;66057;54.718;18.426;2023-05-31T16:13:08;2.50;;;0.30;;
77105;SDS011;66057;54.718;18.426;2023-05-31T16:18:00;2.22;;;0.38;;
77105;SDS011;66057;54.718;18.426;2023-05-31T16:20:26;3.22;;;0.60;;
77105;SDS011;66057;54.718;18.426;2023-05-31T16:22:53;1.23;;;0.43;;